Time;durP1;ratioP1;P1;durP2;ratioP2;P2;SDS_P1;SDS_P2;PMS_P1;PMS_P2;Temp;Humidity;BMP_temperature;BMP_pressure;BME280_temperature;BME280_humidity;BME280_pressure;Samples;Min_cycle;Max_cycle;Signal;HPM_P1;HPM_P2
2023/01/02 00:00:55;;;;;;;42.00;11.40;;;;;;;;;;5036533;28;20038;-40
2023/01/02 00:03:21;;;;;;;52.08;11.70;;;;;;;;;;5040588;28;20041;-39
2023/01/02 00:05:48;;;;;;;42.60;10.50;;;;;;;;;;5038157;28;20053;-40
2023/01/02 00:08:16;;;;;;;66.63;12.55;;;;;;;;;;5034875;28;20133;-40
2023/01/02 00:10:43;;;;;;;74.35;14.40;;;;;;;;;;5039735;28;20140;-40
2023/01/02 00:13:09;;;;;;;48.05;11.73;;;;;;;;;;5035064;28;20052;-41
2023/01/02 00:15:36;;;;;;;61.33;12.75;;;;;;;;;;5036710;28;20396;-40
2023/01/02 00:18:03;;;;;;;64.68;13.77;;;;;;;;;;5037971;28;20376;-40
2023/01/02 00:20:29;;;;;;;76.22;13.93;;;;;;;;;;5038372;28;20087;-40
2023/01/02 00:22:56;;;;;;;39.13;10.65;;;;;;;;;;5037783;28;20037;-40
2023/01/02 00:25:22;;;;;;;58.03;12.00;;;;;;;;;;5036903;28;20070;-40
2023/01/02 00:27:49;;;;;;;45.15;11.02;;;;;;;;;;5036209;28;20073;-40
2023/01/02 00:30:16;;;;;;;46.78;11.80;;;;;;;;;;5038643;28;20503;-40
2023/01/02 00:32:42;;;;;;;54.70;12.00;;;;;;;;;;5037900;28;20053;-40
2023/01/02 00:35:09;;;;;;;42.83;11.38;;;;;;;;;;5037591;28;20116;-40
2023/01/02 00:37:36;;;;;;;47.00;11.60;;;;;;;;;;5036106;28;20049;-40
2023/01/02 00:40:03;;;;;;;99.53;16.38;;;;;;;;;;5036571;28;20045;-40
2023/01/02 00:42:29;;;;;;;97.45;15.70;;;;;;;;;;5036874;28;20041;-40
2023/01/02 00:44:56;;;;;;;40.75;10.90;;;;;;;;;;5036973;28;20045;-40
2023/01/02 00:47:23;;;;;;;48.45;11.60;;;;;;;;;;5035404;28;20056;-40
2023/01/02 00:49:50;;;;;;;39.40;11.43;;;;;;;;;;5039204;28;20122;-40
2023/01/02 00:52:16;;;;;;;49.70;11.68;;;;;;;;;;5035266;28;20102;-40
2023/01/02 00:54:43;;;;;;;94.13;15.38;;;;;;;;;;5035182;28;20084;-40
2023/01/02 00:57:09;;;;;;;56.33;12.45;;;;;;;;;;5036276;28;20046;-39
2023/01/02 00:59:35;;;;;;;52.22;11.15;;;;;;;;;;5035793;28;20045;-40
2023/01/02 01:02:02;;;;;;;55.75;12.43;;;;;;;;;;5036783;28;20391;-40
2023/01/02 01:04:31;;;;;;;71.13;14.05;;;;;;;;;;5037144;28;20049;-39
2023/01/02 01:06:57;;;;;;;46.83;11.45;;;;;;;;;;5035345;28;20048;-40
2023/01/02 01:09:24;;;;;;;51.92;12.13;;;;;;;;;;5035235;28;20959;-39
2023/01/02 01:11:50;;;;;;;67.57;12.93;;;;;;;;;;5037561;28;20044;-40
2023/01/02 01:14:17;;;;;;;52.00;12.43;;;;;;;;;;5035631;28;20046;-40
2023/01/02 01:16:43;;;;;;;59.72;12.85;;;;;;;;;;5034252;28;20042;-39
2023/01/02 01:19:12;;;;;;;69.72;14.25;;;;;;;;;;5038295;28;20037;-40
2023/01/02 01:21:39;;;;;;;67.00;14.15;;;;;;;;;;5040685;28;20044;-39
2023/01/02 01:24:05;;;;;;;44.17;10.35;;;;;;;;;;5041582;28;20053;-40
2023/01/02 01:26:32;;;;;;;62.92;13.10;;;;;;;;;;5034575;28;20455;-40
2023/01/02 01:28:58;;;;;;;67.85;13.90;;;;;;;;;;5042902;28;20048;-39
2023/01/02 01:31:25;;;;;;;48.00;12.10;;;;;;;;;;5037888;28;20064;-40
2023/01/02 01:33:52;;;;;;;71.63;14.10;;;;;;;;;;5039992;28;20396;-39
2023/01/02 01:36:20;;;;;;;44.05;11.55;;;;;;;;;;5040940;28;20073;-40
2023/01/02 01:38:46;;;;;;;58.67;12.73;;;;;;;;;;5044593;28;20043;-40
2023/01/02 01:41:14;;;;;;;76.22;14.27;;;;;;;;;;5038038;28;20045;-40
2023/01/02 01:43:45;;;;;;;59.47;13.98;;;;;;;;;;5040415;28;20069;-40
2023/01/02 01:46:12;;;;;;;49.45;12.65;;;;;;;;;;5038641;28;20430;-40
2023/01/02 01:48:38;;;;;;;76.55;13.95;;;;;;;;;;5039124;28;20048;-39
2023/01/02 01:51:05;;;;;;;42.75;12.02;;;;;;;;;;5042674;28;20045;-40
2023/01/02 01:53:32;;;;;;;48.97;12.10;;;;;;;;;;5040364;28;20144;-40
2023/01/02 01:56:01;;;;;;;75.88;14.68;;;;;;;;;;5036113;28;20045;-40
2023/01/02 02:01:16;;;;;;;68.47;14.73;;;;;;;;;;5090503;22;20511;-44
2023/01/02 02:03:45;;;;;;;49.65;12.52;;;;;;;;;;4981916;28;20176;-43
2023/01/02 02:06:13;;;;;;;56.53;12.63;;;;;;;;;;4977805;28;20080;-44
2023/01/02 02:08:53;;;;;;;81.07;15.98;;;;;;;;;;4977923;28;20068;-44
2023/01/02 02:11:20;;;;;;;51.03;12.02;;;;;;;;;;4979762;28;20046;-44
2023/01/02 02:13:47;;;;;;;54.28;12.48;;;;;;;;;;4977089;28;20408;-44
2023/01/02 02:16:14;;;;;;;41.00;11.27;;;;;;;;;;4981845;28;20031;-45
2023/01/02 02:18:49;;;;;;;65.78;13.65;;;;;;;;;;4980631;28;20492;-45
2023/01/02 02:21:22;;;;;;;72.13;13.43;;;;;;;;;;4979093;28;20045;-45
2023/01/02 02:24:00;;;;;;;50.33;12.83;;;;;;;;;;4978225;28;20046;-45
2023/01/02 02:26:46;;;;;;;61.80;13.52;;;;;;;;;;4982669;28;20428;-44
2023/01/02 02:29:28;;;;;;;44.00;11.93;;;;;;;;;;4978231;28;20511;-44
2023/01/02 02:31:59;;;;;;;39.60;11.43;;;;;;;;;;4977142;28;20126;-44
2023/01/02 02:34:31;;;;;;;42.50;11.05;;;;;;;;;;4980157;28;20413;-44
2023/01/02 02:37:21;;;;;;;54.58;13.48;;;;;;;;;;4975342;28;20122;-44
2023/01/02 02:39:47;;;;;;;48.67;12.13;;;;;;;;;;4981919;28;20129;-45
2023/01/02 02:42:23;;;;;;;64.90;12.95;;;;;;;;;;4979806;28;20038;-44
2023/01/02 02:45:08;;;;;;;38.38;11.30;;;;;;;;;;4978478;28;20468;-45
2023/01/02 02:47:35;;;;;;;58.67;12.80;;;;;;;;;;4978289;28;20050;-45
2023/01/02 02:50:09;;;;;;;63.25;12.80;;;;;;;;;;4977206;28;20058;-44
2023/01/02 02:52:51;;;;;;;65.30;14.25;;;;;;;;;;4974964;28;20606;-44
2023/01/02 02:55:27;;;;;;;46.30;12.23;;;;;;;;;;4977904;28;20089;-43
2023/01/02 02:57:55;;;;;;;56.50;13.15;;;;;;;;;;4978449;28;20046;-43
2023/01/02 03:00:22;;;;;;;46.53;12.45;;;;;;;;;;4978808;28;20051;-43
2023/01/02 03:02:49;;;;;;;35.00;11.90;;;;;;;;;;4977656;28;20070;-43
2023/01/02 03:05:19;;;;;;;57.67;13.63;;;;;;;;;;4984137;28;20057;-43
2023/01/02 03:07:45;;;;;;;39.42;11.70;;;;;;;;;;4979192;28;20049;-44
2023/01/02 03:10:31;;;;;;;63.35;14.02;;;;;;;;;;4977941;28;20035;-44
2023/01/02 03:13:18;;;;;;;39.47;11.50;;;;;;;;;;4982139;28;20035;-44
2023/01/02 03:15:57;;;;;;;47.25;13.30;;;;;;;;;;4978515;28;20096;-44
2023/01/02 03:18:26;;;;;;;64.78;15.25;;;;;;;;;;4978282;28;20054;-43
2023/01/02 03:21:14;;;;;;;41.95;13.18;;;;;;;;;;4977466;28;20039;-44
2023/01/02 03:23:45;;;;;;;42.58;12.93;;;;;;;;;;4976244;28;20043;-44
2023/01/02 03:26:13;;;;;;;51.80;13.48;;;;;;;;;;4978967;28;20077;-43
2023/01/02 03:28:41;;;;;;;49.92;14.02;;;;;;;;;;4977857;28;20043;-44
2023/01/02 03:31:10;;;;;;;48.65;13.20;;;;;;;;;;4978396;28;20046;-45
2023/01/02 03:33:41;;;;;;;51.92;12.25;;;;;;;;;;4980564;28;20042;-43
2023/01/02 03:36:10;;;;;;;55.10;13.18;;;;;;;;;;4980005;28;20045;-44
2023/01/02 03:38:43;;;;;;;52.92;12.88;;;;;;;;;;4979926;28;20052;-43
2023/01/02 03:41:15;;;;;;;73.55;15.20;;;;;;;;;;4977210;28;20062;-43
2023/01/02 03:43:42;;;;;;;29.42;11.38;;;;;;;;;;4977927;28;20078;-43
2023/01/02 03:46:09;;;;;;;50.83;13.25;;;;;;;;;;4979706;28;20037;-45
2023/01/02 03:48:41;;;;;;;56.65;12.13;;;;;;;;;;4977971;28;20046;-43
2023/01/02 03:51:08;;;;;;;56.90;12.68;;;;;;;;;;4978164;28;20519;-44
2023/01/02 03:53:35;;;;;;;46.75;12.55;;;;;;;;;;4977380;28;20047;-44
2023/01/02 03:56:07;;;;;;;43.72;11.32;;;;;;;;;;4977847;28;20130;-44
2023/01/02 03:58:43;;;;;;;47.37;11.50;;;;;;;;;;4974954;28;20043;-43
2023/01/02 04:01:33;;;;;;;50.83;11.93;;;;;;;;;;4979720;28;20300;-44
2023/01/02 04:04:07;;;;;;;34.83;11.82;;;;;;;;;;4980893;28;20072;-44
2023/01/02 04:06:36;;;;;;;51.78;12.98;;;;;;;;;;4977615;28;20043;-43
2023/01/02 04:09:05;;;;;;;59.38;12.90;;;;;;;;;;4976443;28;20501;-44
2023/01/02 04:11:34;;;;;;;50.40;11.73;;;;;;;;;;4975066;28;20049;-44
2023/01/02 04:14:06;;;;;;;33.53;10.13;;;;;;;;;;4979915;28;20042;-44
2023/01/02 04:16:34;;;;;;;47.28;11.57;;;;;;;;;;4977369;28;20507;-43
2023/01/02 04:19:06;;;;;;;60.97;12.63;;;;;;;;;;4977360;28;20496;-44
2023/01/02 04:21:36;;;;;;;52.30;13.10;;;;;;;;;;4979972;28;20054;-43
2023/01/02 04:24:08;;;;;;;52.70;12.82;;;;;;;;;;4977662;28;20042;-43
2023/01/02 04:26:38;;;;;;;51.47;12.13;;;;;;;;;;4976260;28;20084;-44
2023/01/02 04:29:05;;;;;;;36.45;11.20;;;;;;;;;;4982950;28;20045;-44
2023/01/02 04:31:36;;;;;;;58.67;13.43;;;;;;;;;;4976090;28;20043;-43
2023/01/02 04:34:03;;;;;;;50.88;13.10;;;;;;;;;;4977428;28;20496;-44
2023/01/02 04:36:30;;;;;;;53.17;14.38;;;;;;;;;;4977295;28;20044;-44
2023/01/02 04:38:56;;;;;;;55.95;17.48;;;;;;;;;;4976024;28;20128;-44
2023/01/02 04:41:27;;;;;;;50.00;18.15;;;;;;;;;;4977604;28;20172;-44
2023/01/02 04:43:54;;;;;;;42.42;12.13;;;;;;;;;;4980539;28;20486;-43
2023/01/02 04:46:21;;;;;;;54.33;14.55;;;;;;;;;;4976922;28;20587;-44
2023/01/02 04:48:48;;;;;;;41.92;13.40;;;;;;;;;;4976999;28;20049;-44
2023/01/02 04:51:14;;;;;;;48.72;12.43;;;;;;;;;;4977376;28;20050;-45
2023/01/02 04:53:41;;;;;;;63.33;14.32;;;;;;;;;;4975114;28;20050;-45
2023/01/02 04:56:07;;;;;;;44.35;12.80;;;;;;;;;;4975733;28;20129;-48
2023/01/02 04:58:34;;;;;;;46.20;12.40;;;;;;;;;;4974618;28;20038;-46
2023/01/02 05:01:00;;;;;;;46.03;12.57;;;;;;;;;;4978968;28;20116;-44
2023/01/02 05:03:27;;;;;;;39.13;12.45;;;;;;;;;;4973531;28;20030;-44
2023/01/02 05:06:02;;;;;;;52.05;12.75;;;;;;;;;;4974292;28;20130;-44
2023/01/02 05:08:29;;;;;;;65.25;13.02;;;;;;;;;;4975306;28;20432;-45
2023/01/02 05:10:56;;;;;;;35.53;12.45;;;;;;;;;;4978055;28;21023;-44
2023/01/02 05:13:22;;;;;;;34.90;11.57;;;;;;;;;;4977603;28;20054;-44
2023/01/02 05:15:55;;;;;;;44.92;12.45;;;;;;;;;;4976715;28;20050;-48
2023/01/02 05:18:22;;;;;;;45.28;12.43;;;;;;;;;;4978300;28;20042;-44
2023/01/02 05:20:48;;;;;;;32.17;10.73;;;;;;;;;;4977517;28;20050;-44
2023/01/02 05:26:01;;;;;;;49.70;12.32;;;;;;;;;;4975565;28;20408;-44
2023/01/02 05:28:28;;;;;;;49.47;12.48;;;;;;;;;;4978889;28;20082;-45
2023/01/02 05:31:02;;;;;;;35.00;12.20;;;;;;;;;;4978638;28;20496;-45
2023/01/02 05:33:28;;;;;;;48.03;12.77;;;;;;;;;;4980784;28;20419;-43
2023/01/02 05:35:55;;;;;;;36.85;11.75;;;;;;;;;;4975517;28;20107;-44
2023/01/02 05:38:22;;;;;;;51.08;13.02;;;;;;;;;;4981036;28;20047;-45
2023/01/02 05:40:48;;;;;;;37.95;12.75;;;;;;;;;;4976678;28;20061;-44
2023/01/02 05:43:15;;;;;;;63.30;13.70;;;;;;;;;;4978395;28;20503;-44
2023/01/02 05:45:41;;;;;;;48.13;13.23;;;;;;;;;;4976896;28;20047;-46
2023/01/02 05:48:08;;;;;;;43.42;12.52;;;;;;;;;;4976090;28;20057;-45
2023/01/02 05:50:34;;;;;;;60.33;14.52;;;;;;;;;;4975398;28;20041;-44
2023/01/02 05:53:01;;;;;;;46.10;13.07;;;;;;;;;;4973226;28;20045;-43
2023/01/02 05:55:28;;;;;;;48.38;13.77;;;;;;;;;;4975445;28;20074;-43
2023/01/02 05:57:55;;;;;;;46.33;13.23;;;;;;;;;;4976154;28;20059;-43
2023/01/02 06:00:21;;;;;;;58.38;14.35;;;;;;;;;;4977493;28;20050;-44
2023/01/02 06:02:48;;;;;;;52.45;13.73;;;;;;;;;;4975890;28;20039;-44
2023/01/02 06:05:14;;;;;;;74.53;15.25;;;;;;;;;;4976151;28;20128;-44
2023/01/02 06:07:41;;;;;;;47.47;13.70;;;;;;;;;;4975360;28;20098;-43
2023/01/02 06:10:07;;;;;;;57.97;14.60;;;;;;;;;;4974133;28;20035;-43
2023/01/02 06:12:34;;;;;;;73.00;15.88;;;;;;;;;;4982516;28;20050;-43
2023/01/02 06:15:01;;;;;;;42.72;12.85;;;;;;;;;;4978411;28;20411;-43
2023/01/02 06:17:27;;;;;;;42.08;12.77;;;;;;;;;;4980848;28;20046;-43
2023/01/02 06:19:54;;;;;;;54.97;13.32;;;;;;;;;;4984874;28;20050;-43
2023/01/02 06:22:20;;;;;;;38.95;12.27;;;;;;;;;;4980954;28;20053;-44
2023/01/02 06:24:47;;;;;;;56.67;14.75;;;;;;;;;;4978838;28;20058;-44
2023/01/02 06:27:13;;;;;;;70.03;16.15;;;;;;;;;;4984470;28;20070;-43
2023/01/02 06:29:40;;;;;;;39.25;12.90;;;;;;;;;;4977125;28;20047;-44
2023/01/02 06:32:06;;;;;;;48.25;14.35;;;;;;;;;;4979379;28;20061;-44
2023/01/02 06:34:33;;;;;;;63.85;15.05;;;;;;;;;;4978057;28;20625;-44
2023/01/02 06:36:59;;;;;;;41.90;13.65;;;;;;;;;;4979325;28;20043;-43
2023/01/02 06:39:34;;;;;;;48.30;13.57;;;;;;;;;;4983488;28;20034;-44
2023/01/02 06:42:01;;;;;;;51.40;14.27;;;;;;;;;;4980116;28;20042;-44
2023/01/02 06:44:27;;;;;;;53.45;14.20;;;;;;;;;;4982781;28;20046;-44
2023/01/02 06:46:54;;;;;;;48.95;13.13;;;;;;;;;;4976804;28;21125;-44
2023/01/02 06:49:20;;;;;;;55.22;13.85;;;;;;;;;;4979650;28;20424;-44
2023/01/02 06:51:47;;;;;;;54.72;14.82;;;;;;;;;;4982622;28;20062;-43
2023/01/02 06:54:14;;;;;;;56.65;14.32;;;;;;;;;;4978542;28;20046;-44
2023/01/02 06:56:40;;;;;;;72.53;15.30;;;;;;;;;;4976259;28;20042;-45
2023/01/02 06:59:08;;;;;;;34.95;12.07;;;;;;;;;;4981154;28;20038;-44
2023/01/02 07:01:34;;;;;;;40.42;12.63;;;;;;;;;;4978717;28;20054;-43
2023/01/02 07:04:01;;;;;;;66.95;14.25;;;;;;;;;;4978318;28;20093;-43
2023/01/02 07:06:28;;;;;;;38.13;11.57;;;;;;;;;;4980804;28;20050;-43
2023/01/02 07:08:54;;;;;;;48.60;12.73;;;;;;;;;;4978555;28;20105;-44
2023/01/02 07:11:22;;;;;;;41.63;12.18;;;;;;;;;;4978511;28;20042;-44
2023/01/02 07:13:49;;;;;;;35.35;10.75;;;;;;;;;;4975672;28;20049;-44
2023/01/02 07:16:17;;;;;;;37.85;11.20;;;;;;;;;;4975854;28;20035;-43
2023/01/02 07:18:44;;;;;;;78.30;15.63;;;;;;;;;;4981388;28;20117;-44
2023/01/02 07:21:11;;;;;;;51.63;12.82;;;;;;;;;;4980003;28;20042;-44
2023/01/02 07:23:37;;;;;;;46.03;12.35;;;;;;;;;;4977057;28;20125;-44
2023/01/02 07:26:04;;;;;;;41.78;11.50;;;;;;;;;;4978486;28;20114;-43
2023/01/02 07:28:31;;;;;;;45.78;11.35;;;;;;;;;;4979587;28;20098;-44
2023/01/02 07:30:59;;;;;;;34.72;10.50;;;;;;;;;;4981980;28;20457;-43
2023/01/02 07:33:27;;;;;;;54.03;12.50;;;;;;;;;;4978587;28;20042;-45
2023/01/02 07:35:57;;;;;;;32.75;10.68;;;;;;;;;;4976882;28;20382;-44
2023/01/02 07:38:24;;;;;;;49.90;12.07;;;;;;;;;;4977952;28;20053;-44
2023/01/02 07:40:51;;;;;;;50.22;11.95;;;;;;;;;;4978162;28;20038;-45
2023/01/02 07:43:18;;;;;;;43.08;11.80;;;;;;;;;;4978074;28;20049;-45
2023/01/02 07:45:44;;;;;;;34.63;10.65;;;;;;;;;;4980695;28;20042;-47
2023/01/02 07:48:16;;;;;;;66.60;12.73;;;;;;;;;;4978763;28;20134;-44
2023/01/02 07:50:42;;;;;;;49.60;12.00;;;;;;;;;;4975250;28;20046;-44
2023/01/02 07:53:09;;;;;;;34.63;9.88;;;;;;;;;;4976735;28;20047;-43
2023/01/02 07:55:35;;;;;;;52.30;11.88;;;;;;;;;;4975069;28;20129;-44
2023/01/02 07:58:02;;;;;;;32.45;10.00;;;;;;;;;;4980190;28;20049;-44
2023/01/02 08:00:28;;;;;;;36.67;9.15;;;;;;;;;;4980932;28;20097;-44
2023/01/02 08:02:55;;;;;;;45.90;10.73;;;;;;;;;;4975639;28;20047;-43
2023/01/02 08:05:21;;;;;;;41.47;11.57;;;;;;;;;;4976876;28;20081;-43
2023/01/02 08:07:48;;;;;;;35.70;10.32;;;;;;;;;;4977846;28;20126;-43
2023/01/02 08:10:15;;;;;;;44.75;10.75;;;;;;;;;;4979141;28;20098;-43
2023/01/02 08:12:41;;;;;;;58.53;12.50;;;;;;;;;;4975882;28;20046;-43
2023/01/02 08:15:08;;;;;;;46.88;11.98;;;;;;;;;;4977321;28;20034;-44
2023/01/02 08:17:34;;;;;;;42.42;10.98;;;;;;;;;;4977070;28;20057;-44
2023/01/02 08:20:01;;;;;;;33.00;9.80;;;;;;;;;;4974525;28;20046;-43
2023/01/02 08:22:33;;;;;;;45.28;10.82;;;;;;;;;;4976056;28;20066;-43
2023/01/02 08:25:00;;;;;;;50.97;10.68;;;;;;;;;;4978770;28;20038;-44
2023/01/02 08:27:26;;;;;;;33.95;9.90;;;;;;;;;;4982487;28;20042;-43
2023/01/02 08:29:53;;;;;;;43.28;11.02;;;;;;;;;;4975150;28;20038;-43
2023/01/02 08:32:19;;;;;;;33.28;9.90;;;;;;;;;;4977925;28;20053;-43
2023/01/02 08:34:46;;;;;;;41.85;10.93;;;;;;;;;;4973827;28;20047;-43
2023/01/02 08:37:12;;;;;;;46.70;11.15;;;;;;;;;;4979113;28;20046;-43
2023/01/02 08:39:39;;;;;;;40.83;11.32;;;;;;;;;;4977396;28;20031;-43
2023/01/02 08:42:06;;;;;;;46.50;12.07;;;;;;;;;;4979245;28;20046;-43
2023/01/02 08:44:33;;;;;;;45.70;11.85;;;;;;;;;;4975632;28;20052;-44
2023/01/02 08:47:00;;;;;;;33.88;10.73;;;;;;;;;;4978455;28;20443;-43
2023/01/02 08:49:26;;;;;;;35.90;11.02;;;;;;;;;;4977634;28;20610;-43
2023/01/02 08:51:53;;;;;;;34.95;11.05;;;;;;;;;;4975460;28;20049;-45
2023/01/02 08:54:20;;;;;;;55.55;14.02;;;;;;;;;;4976800;28;20056;-43
2023/01/02 08:56:47;;;;;;;45.03;11.57;;;;;;;;;;4977090;28;20046;-44
2023/01/02 08:59:13;;;;;;;36.28;11.38;;;;;;;;;;4977454;28;20113;-43
2023/01/02 09:01:41;;;;;;;32.28;10.77;;;;;;;;;;4974402;28;20129;-44
2023/01/02 09:04:08;;;;;;;45.28;11.25;;;;;;;;;;4978844;28;20045;-44
2023/01/02 09:06:38;;;;;;;51.70;11.60;;;;;;;;;;4980321;28;20049;-45
2023/01/02 09:09:05;;;;;;;40.58;11.88;;;;;;;;;;4974275;28;20121;-43
2023/01/02 09:11:38;;;;;;;43.35;10.93;;;;;;;;;;4973944;28;20567;-43
2023/01/02 09:14:05;;;;;;;44.90;11.32;;;;;;;;;;4975826;28;20050;-43
2023/01/02 09:16:32;;;;;;;51.95;12.35;;;;;;;;;;4975778;28;20556;-43
2023/01/02 09:18:59;;;;;;;34.47;10.77;;;;;;;;;;4980404;28;20042;-43
2023/01/02 09:21:26;;;;;;;42.38;12.43;;;;;;;;;;4976895;28;20042;-45
2023/01/02 09:23:53;;;;;;;46.55;12.05;;;;;;;;;;4974524;28;20043;-43
2023/01/02 09:26:19;;;;;;;39.00;10.77;;;;;;;;;;4981070;28;20064;-44
2023/01/02 09:28:46;;;;;;;40.72;11.52;;;;;;;;;;4978256;28;20055;-43
2023/01/02 09:31:14;;;;;;;37.60;11.35;;;;;;;;;;4978345;28;20037;-44
2023/01/02 09:33:41;;;;;;;50.20;12.07;;;;;;;;;;4978863;28;20085;-43
2023/01/02 09:36:09;;;;;;;50.45;12.65;;;;;;;;;;4973388;28;20070;-43
2023/01/02 09:38:36;;;;;;;68.80;13.25;;;;;;;;;;4975355;28;20054;-43
2023/01/02 09:41:32;;;;;;;37.25;11.20;;;;;;;;;;4976979;28;20047;-43
2023/01/02 09:44:00;;;;;;;43.90;11.27;;;;;;;;;;4973626;28;20051;-46
2023/01/02 09:46:30;;;;;;;36.78;11.20;;;;;;;;;;4980967;28;20145;-43
2023/01/02 09:48:58;;;;;;;33.08;11.35;;;;;;;;;;4980244;28;20097;-44
2023/01/02 09:51:25;;;;;;;52.38;13.00;;;;;;;;;;4980069;28;20171;-43
2023/01/02 09:53:51;;;;;;;45.25;13.25;;;;;;;;;;4978123;28;20046;-44
2023/01/02 09:56:33;;;;;;;37.25;11.10;;;;;;;;;;4980986;28;20488;-44
2023/01/02 09:58:59;;;;;;;35.90;11.05;;;;;;;;;;4976565;28;20042;-43
2023/01/02 10:01:32;;;;;;;43.72;12.30;;;;;;;;;;4979419;28;20074;-44
2023/01/02 10:03:58;;;;;;;48.28;12.82;;;;;;;;;;4982009;28;20469;-45
2023/01/02 10:06:29;;;;;;;51.83;15.25;;;;;;;;;;4982254;28;20760;-43
2023/01/02 10:09:08;;;;;;;48.53;14.32;;;;;;;;;;4977012;28;20727;-44
2023/01/02 10:11:41;;;;;;;39.30;13.68;;;;;;;;;;4979061;28;20548;-45
2023/01/02 10:14:24;;;;;;;38.70;10.75;;;;;;;;;;4981734;28;20039;-45
2023/01/02 10:17:04;;;;;;;33.85;11.80;;;;;;;;;;4979841;28;20055;-46
2023/01/02 10:19:49;;;;;;;40.28;11.38;;;;;;;;;;4978950;28;20039;-44
2023/01/02 10:22:19;;;;;;;34.45;11.27;;;;;;;;;;4981721;28;20047;-44
2023/01/02 10:25:03;;;;;;;41.83;11.48;;;;;;;;;;4982115;28;20042;-44
2023/01/02 10:27:33;;;;;;;44.03;11.57;;;;;;;;;;4977041;28;20026;-43
2023/01/02 10:30:20;;;;;;;31.85;10.43;;;;;;;;;;4980279;28;20433;-45
2023/01/02 10:32:51;;;;;;;37.22;11.75;;;;;;;;;;4976732;28;20054;-44
2023/01/02 10:35:37;;;;;;;48.00;14.55;;;;;;;;;;4980249;28;20053;-44
2023/01/02 10:38:03;;;;;;;48.03;13.48;;;;;;;;;;4976461;28;20105;-44
2023/01/02 10:40:30;;;;;;;61.30;14.27;;;;;;;;;;4977556;28;20038;-43
2023/01/02 10:42:58;;;;;;;44.13;12.68;;;;;;;;;;4981408;28;20063;-44
2023/01/02 10:45:25;;;;;;;44.90;11.88;;;;;;;;;;4981778;28;20141;-44
2023/01/02 10:47:52;;;;;;;40.75;10.43;;;;;;;;;;4977616;28;20047;-43
2023/01/02 10:50:20;;;;;;;42.83;11.27;;;;;;;;;;4984638;28;20042;-44
2023/01/02 10:52:51;;;;;;;36.10;11.73;;;;;;;;;;4978035;28;20072;-44
2023/01/02 10:55:31;;;;;;;45.78;11.45;;;;;;;;;;4981025;28;20070;-44
2023/01/02 10:58:01;;;;;;;48.20;11.75;;;;;;;;;;4978992;28;20042;-43
2023/01/02 11:00:30;;;;;;;44.97;12.80;;;;;;;;;;4980133;28;20058;-45
2023/01/02 11:02:58;;;;;;;52.08;12.80;;;;;;;;;;4987540;28;20209;-43
2023/01/02 11:05:28;;;;;;;36.63;12.20;;;;;;;;;;4980021;28;20046;-44
2023/01/02 11:07:56;;;;;;;43.63;11.48;;;;;;;;;;4978201;28;20433;-46
2023/01/02 11:10:26;;;;;;;39.70;11.65;;;;;;;;;;4976403;28;20062;-44
2023/01/02 11:12:52;;;;;;;39.75;11.40;;;;;;;;;;4982284;28;20117;-44
2023/01/02 11:15:29;;;;;;;56.85;12.82;;;;;;;;;;4985380;28;20129;-44
2023/01/02 11:17:57;;;;;;;34.67;11.27;;;;;;;;;;4979009;28;20116;-44
2023/01/02 11:20:27;;;;;;;40.00;11.98;;;;;;;;;;4976832;28;20038;-44
2023/01/02 11:22:55;;;;;;;44.20;12.13;;;;;;;;;;4978575;28;20049;-43
2023/01/02 11:25:23;;;;;;;51.35;13.25;;;;;;;;;;4979375;28;20137;-44
2023/01/02 11:27:50;;;;;;;40.63;11.82;;;;;;;;;;4978177;28;20061;-44
2023/01/02 11:30:42;;;;;;;57.50;13.77;;;;;;;;;;4978291;28;20133;-43
2023/01/02 11:33:29;;;;;;;45.03;12.18;;;;;;;;;;4978580;28;20130;-45
2023/01/02 11:36:04;;;;;;;37.00;12.43;;;;;;;;;;4975431;28;20042;-43
2023/01/02 11:38:50;;;;;;;55.55;14.63;;;;;;;;;;4977204;28;20045;-45
2023/01/02 11:41:23;;;;;;;48.28;12.75;;;;;;;;;;4980139;28;20500;-44
2023/01/02 11:43:54;;;;;;;58.33;14.80;;;;;;;;;;4979133;28;20122;-44
2023/01/02 11:46:34;;;;;;;40.45;13.38;;;;;;;;;;4979213;28;20054;-44
2023/01/02 11:49:15;;;;;;;51.42;14.00;;;;;;;;;;4977760;28;20138;-45
2023/01/02 11:51:41;;;;;;;35.60;12.68;;;;;;;;;;4986653;28;20126;-43
2023/01/02 11:54:12;;;;;;;64.78;14.88;;;;;;;;;;4977955;28;20499;-44
2023/01/02 11:56:40;;;;;;;45.20;13.90;;;;;;;;;;4976937;28;20105;-44
2023/01/02 11:59:16;;;;;;;34.65;12.85;;;;;;;;;;4978264;28;20046;-45
2023/01/02 12:01:42;;;;;;;49.60;13.73;;;;;;;;;;4975876;28;20058;-44
2023/01/02 12:04:10;;;;;;;34.10;12.65;;;;;;;;;;4977815;28;20035;-44
2023/01/02 12:06:39;;;;;;;55.78;14.52;;;;;;;;;;4980533;28;20070;-43
2023/01/02 12:09:24;;;;;;;48.10;13.77;;;;;;;;;;4978001;28;20110;-43
2023/01/02 12:12:09;;;;;;;41.90;12.93;;;;;;;;;;4976347;28;20043;-45
2023/01/02 12:14:44;;;;;;;48.05;13.75;;;;;;;;;;4978048;28;20077;-44
2023/01/02 12:17:19;;;;;;;;;;;;;;;;;;4977021;28;20146;-44
2023/01/02 12:19:52;;;;;;;45.10;13.70;;;;;;;;;;4975343;28;19929;-44
2023/01/02 12:22:25;;;;;;;41.05;11.77;;;;;;;;;;4978307;28;20125;-45
2023/01/02 12:25:18;;;;;;;42.10;12.75;;;;;;;;;;4978281;28;20195;-44
2023/01/02 12:27:45;;;;;;;43.63;11.70;;;;;;;;;;4980037;28;20145;-44
2023/01/02 12:30:15;;;;;;;76.80;16.17;;;;;;;;;;4976753;28;20049;-44
2023/01/02 12:32:48;;;;;;;47.25;14.10;;;;;;;;;;4978020;28;20066;-44
2023/01/02 12:35:17;;;;;;;48.58;13.52;;;;;;;;;;4977103;28;20039;-43
2023/01/02 12:37:44;;;;;;;56.60;15.38;;;;;;;;;;4974951;28;20126;-44
2023/01/02 12:40:29;;;;;;;45.50;14.02;;;;;;;;;;4979112;28;20050;-44
2023/01/02 12:43:10;;;;;;;43.17;12.88;;;;;;;;;;4980858;28;20411;-47
2023/01/02 12:45:43;;;;;;;45.70;14.60;;;;;;;;;;4980130;28;20054;-45
2023/01/02 12:48:22;;;;;;;74.45;16.20;;;;;;;;;;4977579;28;20051;-44
2023/01/02 12:50:53;;;;;;;41.70;13.23;;;;;;;;;;4975240;28;20075;-44
2023/01/02 12:53:38;;;;;;;57.17;14.43;;;;;;;;;;4976136;28;20051;-45
2023/01/02 12:56:09;;;;;;;41.38;11.73;;;;;;;;;;4974048;28;20050;-44
2023/01/02 12:58:38;;;;;;;60.55;14.80;;;;;;;;;;4974766;28;20050;-44
2023/01/02 13:01:11;;;;;;;58.50;13.45;;;;;;;;;;4978844;28;20055;-44
2023/01/02 13:03:40;;;;;;;50.70;12.43;;;;;;;;;;4973180;28;20452;-44
2023/01/02 13:06:13;;;;;;;50.13;14.38;;;;;;;;;;4977896;28;20042;-43
2023/01/02 13:09:03;;;;;;;52.95;13.27;;;;;;;;;;4974858;28;20047;-44
2023/01/02 13:11:41;;;;;;;39.53;13.23;;;;;;;;;;4977939;28;20034;-44
2023/01/02 13:14:18;;;;;;;41.53;13.82;;;;;;;;;;4973866;28;20377;-43
2023/01/02 13:16:49;;;;;;;37.70;12.35;;;;;;;;;;4978456;28;20039;-44
2023/01/02 13:19:33;;;;;;;36.80;12.13;;;;;;;;;;4983016;28;20046;-44
2023/01/02 13:22:09;;;;;;;44.65;11.65;;;;;;;;;;4980677;28;20045;-44
2023/01/02 13:24:36;;;;;;;51.03;12.38;;;;;;;;;;4980212;28;20514;-43
2023/01/02 13:27:03;;;;;;;56.97;14.40;;;;;;;;;;4978876;28;20413;-45
2023/01/02 13:29:47;;;;;;;44.40;13.82;;;;;;;;;;4986670;28;20057;-45
2023/01/02 13:32:24;;;;;;;60.15;13.45;;;;;;;;;;4987474;28;20038;-43
2023/01/02 13:34:52;;;;;;;39.35;11.80;;;;;;;;;;4980487;28;20043;-43
2023/01/02 13:37:20;;;;;;;40.58;11.93;;;;;;;;;;4980313;28;20085;-45
2023/01/02 13:39:57;;;;;;;52.72;13.60;;;;;;;;;;4975781;28;20073;-46
2023/01/02 13:45:17;;;;;;;40.28;11.13;;;;;;;;;;4980190;28;20101;-44
2023/01/02 13:47:51;;;;;;;41.28;11.73;;;;;;;;;;4977807;28;20137;-44
2023/01/02 13:50:21;;;;;;;28.75;10.82;;;;;;;;;;4979931;28;20057;-44
2023/01/02 13:52:58;;;;;;;36.42;11.63;;;;;;;;;;4982356;28;20039;-44
2023/01/02 13:55:30;;;;;;;50.20;13.07;;;;;;;;;;4979712;28;20046;-43
2023/01/02 13:58:29;;;;;;;49.90;12.80;;;;;;;;;;4982173;28;20043;-44
2023/01/02 14:00:55;;;;;;;37.60;13.00;;;;;;;;;;4943794;28;20070;-44
2023/01/02 14:03:22;;;;;;;50.00;12.55;;;;;;;;;;4941976;28;20043;-44
2023/01/02 14:05:59;;;;;;;58.22;13.82;;;;;;;;;;4941689;28;20391;-45
2023/01/02 14:08:32;;;;;;;56.22;12.80;;;;;;;;;;4942043;28;20051;-43
2023/01/02 14:11:01;;;;;;;41.33;12.02;;;;;;;;;;4942151;28;20078;-46
2023/01/02 14:13:39;;;;;;;36.58;11.57;;;;;;;;;;4943954;28;20044;-43
2023/01/02 14:16:23;;;;;;;46.75;12.20;;;;;;;;;;4940645;28;20532;-45
2023/01/02 14:19:09;;;;;;;42.80;12.57;;;;;;;;;;4942585;28;20548;-46
2023/01/02 14:21:38;;;;;;;53.88;14.15;;;;;;;;;;4928909;28;20048;-44
2023/01/02 14:24:06;;;;;;;40.95;12.00;;;;;;;;;;4942199;28;20138;-43
2023/01/02 14:26:49;;;;;;;47.83;13.60;;;;;;;;;;4939640;28;20052;-45
2023/01/02 14:29:17;;;;;;;56.17;14.68;;;;;;;;;;4940054;28;20059;-44
2023/01/02 14:31:44;;;;;;;45.00;13.65;;;;;;;;;;4945319;28;20062;-44
2023/01/02 14:34:19;;;;;;;48.72;13.15;;;;;;;;;;4940361;28;20043;-44
2023/01/02 14:36:47;;;;;;;47.22;13.07;;;;;;;;;;4967174;28;20164;-44
2023/01/02 14:39:34;;;;;;;59.55;13.75;;;;;;;;;;4979435;28;20043;-45
2023/01/02 14:45:06;;;;;;;51.33;13.27;;;;;;;;;;4977288;28;20043;-45
2023/01/02 14:47:43;;;;;;;41.28;12.75;;;;;;;;;;4980183;28;20050;-45